Time;durP1;ratioP1;P1;durP2;ratioP2;P2;SDS_P1;SDS_P2;PMS_P1;PMS_P2;Temp;Humidity;BMP_temperature;BMP_pressure;BME280_temperature;BME280_humidity;BME280_pressure;Samples;Min_cycle;Max_cycle;Signal;HPM_P1;HPM_P2
2021/11/18 00:00:37;;;;;;;61.08;34.28;;;17.80;65.60;;;;;;5050755;28;20020;-24
2021/11/18 00:03:03;;;;;;;59.30;33.58;;;17.80;65.60;;;;;;5057805;28;20033;-22
2021/11/18 00:05:29;;;;;;;61.45;34.13;;;17.80;65.60;;;;;;5057895;28;20055;-29
2021/11/18 00:07:54;;;;;;;63.00;33.75;;;17.80;65.60;;;;;;5041696;28;20490;-24
2021/11/18 00:10:25;;;;;;;57.25;31.70;;;17.80;65.60;;;;;;5030557;28;20059;-26
2021/11/18 00:12:51;;;;;;;61.17;32.40;;;17.80;65.60;;;;;;5046913;28;20060;-25
2021/11/18 00:15:17;;;;;;;54.97;30.48;;;17.80;65.50;;;;;;5047115;28;20593;-23
2021/11/18 00:17:42;;;;;;;56.45;30.65;;;17.80;65.50;;;;;;5037244;28;20082;-29
2021/11/18 00:20:13;;;;;;;55.42;31.85;;;17.80;65.50;;;;;;5037554;28;20026;-26
2021/11/18 00:22:41;;;;;;;51.40;29.83;;;17.80;65.50;;;;;;5047881;28;20582;-24
2021/11/18 00:25:07;;;;;;;53.92;30.50;;;17.80;65.50;;;;;;5037499;28;20018;-21
2021/11/18 00:27:33;;;;;;;57.13;31.50;;;17.80;65.50;;;;;;5036460;28;20037;-24
2021/11/18 00:29:58;;;;;;;51.72;29.00;;;17.80;65.50;;;;;;5029997;28;20034;-24
2021/11/18 00:32:24;;;;;;;51.00;30.13;;;17.80;65.40;;;;;;5023913;28;20026;-21
2021/11/18 00:34:49;;;;;;;50.97;29.02;;;17.80;65.50;;;;;;5040814;28;20740;-21
2021/11/18 00:37:15;;;;;;;45.45;26.55;;;17.80;65.50;;;;;;5037495;28;20035;-23
2021/11/18 00:39:40;;;;;;;46.97;27.40;;;17.80;65.40;;;;;;5024071;28;20618;-21
2021/11/18 00:42:06;;;;;;;48.47;27.48;;;17.70;65.30;;;;;;5044978;28;20474;-24
2021/11/18 00:44:32;;;;;;;44.83;25.98;;;17.80;65.50;;;;;;5057259;28;20029;-21
2021/11/18 00:46:57;;;;;;;46.55;25.55;;;17.80;65.40;;;;;;5041292;28;20061;-23
2021/11/18 00:49:23;;;;;;;48.40;27.13;;;17.70;65.30;;;;;;5029735;28;20079;-20
2021/11/18 00:51:49;;;;;;;46.13;25.63;;;17.80;65.30;;;;;;5038916;28;20025;-27
2021/11/18 00:54:15;;;;;;;43.60;25.73;;;17.70;65.30;;;;;;5036700;28;20024;-24
2021/11/18 00:56:41;;;;;;;41.85;25.45;;;17.80;65.30;;;;;;5037199;28;20026;-26
2021/11/18 00:59:07;;;;;;;43.40;24.08;;;17.80;65.20;;;;;;5037089;28;20425;-27
2021/11/18 01:01:35;;;;;;;38.88;24.17;;;17.80;65.20;;;;;;5037108;28;20021;-23
2021/11/18 01:04:01;;;;;;;40.92;23.98;;;17.70;65.20;;;;;;5034517;28;20594;-25
2021/11/18 01:06:26;;;;;;;41.10;25.52;;;17.70;65.30;;;;;;5036868;28;20080;-23
2021/11/18 01:08:52;;;;;;;38.85;23.58;;;17.70;65.20;;;;;;5049367;28;20424;-31
2021/11/18 01:11:21;;;;;;;41.22;23.85;;;17.70;65.20;;;;;;5056508;28;20017;-23
2021/11/18 01:13:47;;;;;;;37.63;22.85;;;17.70;65.30;;;;;;5034442;28;20076;-26
2021/11/18 01:16:15;;;;;;;38.80;22.90;;;17.70;65.30;;;;;;5024382;28;20025;-21
2021/11/18 01:18:41;;;;;;;40.00;22.13;;;17.70;65.20;;;;;;5043883;28;20078;-27
2021/11/18 01:21:07;;;;;;;36.03;20.48;;;17.70;65.20;;;;;;5036541;28;20482;-23
2021/11/18 01:23:34;;;;;;;37.88;22.77;;;17.70;65.20;;;;;;5036590;28;20032;-21
2021/11/18 01:26:00;;;;;;;30.67;20.00;;;17.70;65.20;;;;;;5047702;28;20051;-26
2021/11/18 01:28:26;;;;;;;33.53;20.05;;;17.70;65.20;;;;;;5056574;28;20528;-28
2021/11/18 01:30:52;;;;;;;34.35;20.83;;;17.70;65.10;;;;;;5040577;28;20037;-23
2021/11/18 01:33:17;;;;;;;35.50;20.33;;;17.70;65.20;;;;;;5036315;28;20029;-23
2021/11/18 01:35:45;;;;;;;33.92;20.92;;;17.70;65.20;;;;;;5031445;28;20030;-24
2021/11/18 01:38:10;;;;;;;31.80;19.60;;;17.60;65.10;;;;;;5029401;28;20097;-23
2021/11/18 01:40:38;;;;;;;30.40;18.88;;;17.70;65.10;;;;;;5044167;28;20082;-26
2021/11/18 01:43:04;;;;;;;29.92;18.70;;;17.70;65.00;;;;;;5025742;28;20051;-21
2021/11/18 01:45:30;;;;;;;31.48;18.58;;;17.70;65.10;;;;;;5036972;28;20131;-23
2021/11/18 01:47:55;;;;;;;30.98;18.92;;;17.70;65.20;;;;;;5039096;28;20036;-21
2021/11/18 01:50:23;;;;;;;30.75;18.63;;;17.70;65.20;;;;;;5049882;28;20061;-27
2021/11/18 01:52:50;;;;;;;32.78;19.58;;;17.70;65.20;;;;;;5036404;28;20108;-26
2021/11/18 01:55:16;;;;;;;30.92;18.58;;;17.70;65.10;;;;;;5036486;28;20048;-24
2021/11/18 01:57:42;;;;;;;25.23;16.15;;;17.70;64.80;;;;;;5036731;28;20052;-27
2021/11/18 02:00:11;;;;;;;30.17;18.05;;;17.70;64.90;;;;;;5036374;28;20030;-22
2021/11/18 02:02:37;;;;;;;26.85;16.48;;;17.70;64.90;;;;;;5037720;28;20033;-24
2021/11/18 02:05:17;;;;;;;29.25;18.15;;;17.70;64.80;;;;;;5040088;28;20080;-22
2021/11/18 02:07:44;;;;;;;28.45;17.02;;;17.70;65.00;;;;;;5030124;28;20463;-24
2021/11/18 02:10:11;;;;;;;28.15;16.63;;;17.70;64.90;;;;;;5053409;28;20039;-24
2021/11/18 02:12:36;;;;;;;28.48;16.98;;;17.70;64.80;;;;;;5051214;28;20025;-21
2021/11/18 02:15:03;;;;;;;25.23;16.58;;;17.70;64.80;;;;;;5028844;28;20087;-27
2021/11/18 02:17:29;;;;;;;24.85;15.60;;;17.70;64.90;;;;;;5026694;28;20072;-23
2021/11/18 02:19:59;;;;;;;25.33;15.32;;;17.70;64.80;;;;;;5030031;28;20575;-23
2021/11/18 02:22:25;;;;;;;23.45;14.73;;;17.70;64.90;;;;;;5050992;28;20032;-20
2021/11/18 02:25:10;;;;;;;23.15;14.95;;;17.70;64.90;;;;;;5040122;28;20030;-24
2021/11/18 02:27:36;;;;;;;25.38;15.50;;;17.70;64.70;;;;;;5039967;28;20033;-23
2021/11/18 02:30:02;;;;;;;24.08;14.80;;;17.70;64.60;;;;;;5026259;28;20030;-25
2021/11/18 02:32:32;;;;;;;24.25;14.80;;;17.70;64.60;;;;;;5045924;28;20017;-23
2021/11/18 02:35:05;;;;;;;21.48;14.38;;;17.70;64.80;;;;;;5059663;28;20041;-27
2021/11/18 02:37:31;;;;;;;22.15;14.05;;;17.60;64.80;;;;;;5036207;28;20026;-24
2021/11/18 02:39:57;;;;;;;20.95;13.50;;;17.70;64.80;;;;;;5033157;28;20040;-28
2021/11/18 02:42:23;;;;;;;21.23;13.85;;;17.70;64.70;;;;;;5041555;28;20025;-22
2021/11/18 02:44:48;;;;;;;20.05;13.55;;;17.60;64.70;;;;;;5058711;28;20029;-26
2021/11/18 02:47:14;;;;;;;18.17;12.73;;;17.60;64.80;;;;;;5059369;28;20490;-24
2021/11/18 02:49:48;;;;;;;22.83;14.50;;;17.60;64.80;;;;;;5032676;28;20037;-21
2021/11/18 02:52:16;;;;;;;18.83;12.57;;;17.60;64.80;;;;;;5039349;28;20082;-26
2021/11/18 02:54:41;;;;;;;20.02;13.02;;;17.60;64.70;;;;;;5046674;28;20041;-25
2021/11/18 02:57:07;;;;;;;18.85;12.05;;;17.60;64.70;;;;;;5059100;28;20150;-22
2021/11/18 02:59:35;;;;;;;17.48;12.48;;;17.60;64.60;;;;;;5054680;28;20116;-21
2021/11/18 03:02:00;;;;;;;17.48;11.30;;;17.60;64.50;;;;;;5037620;28;20417;-24
2021/11/18 03:04:26;;;;;;;19.13;12.52;;;17.60;64.80;;;;;;5038086;28;20029;-22
2021/11/18 03:06:53;;;;;;;19.30;12.60;;;17.60;64.60;;;;;;5035361;28;20021;-27
2021/11/18 03:09:18;;;;;;;16.08;11.73;;;17.60;64.80;;;;;;5048412;28;20031;-24
2021/11/18 03:11:44;;;;;;;16.58;11.50;;;17.60;64.60;;;;;;5039302;28;20049;-23
2021/11/18 03:14:10;;;;;;;19.30;12.02;;;17.60;64.80;;;;;;5029708;28;20057;-23
2021/11/18 03:16:35;;;;;;;18.30;11.60;;;17.60;64.70;;;;;;5039195;28;20029;-28
2021/11/18 03:19:01;;;;;;;15.95;10.80;;;17.60;64.70;;;;;;5037639;28;20486;-24
2021/11/18 03:21:27;;;;;;;16.55;10.80;;;17.60;64.70;;;;;;5038811;28;20010;-23
2021/11/18 03:23:53;;;;;;;16.33;10.85;;;17.60;64.70;;;;;;5038850;28;20036;-25
2021/11/18 03:26:20;;;;;;;15.88;10.02;;;17.60;64.70;;;;;;5055064;28;20084;-27
2021/11/18 03:28:46;;;;;;;16.95;10.98;;;17.60;64.60;;;;;;5058633;28;20075;-23
2021/11/18 03:31:12;;;;;;;17.00;10.88;;;17.50;64.70;;;;;;5054367;28;20042;-25
2021/11/18 03:33:40;;;;;;;15.02;10.35;;;17.50;65.50;;;;;;5038440;28;20053;-25
2021/11/18 03:36:06;;;;;;;16.13;11.13;;;17.50;64.70;;;;;;5051397;28;20013;-20
2021/11/18 03:38:32;;;;;;;16.10;10.20;;;17.50;64.50;;;;;;5028085;28;20033;-22
2021/11/18 03:41:03;;;;;;;15.80;10.95;;;17.50;64.70;;;;;;5038548;28;20021;-24
2021/11/18 03:43:31;;;;;;;15.18;10.05;;;17.50;64.70;;;;;;5029459;28;20041;-25
2021/11/18 03:45:57;;;;;;;15.00;9.93;;;17.50;64.80;;;;;;5058383;28;20053;-20
2021/11/18 03:48:22;;;;;;;16.35;10.20;;;17.50;64.70;;;;;;5050314;28;20084;-23
2021/11/18 03:50:48;;;;;;;14.85;9.93;;;17.50;64.70;;;;;;5038067;28;20036;-26
2021/11/18 03:53:14;;;;;;;15.75;10.48;;;17.50;64.70;;;;;;5057179;28;20103;-25
2021/11/18 03:55:40;;;;;;;12.35;9.50;;;17.50;64.80;;;;;;5057917;28;20077;-22
2021/11/18 03:58:06;;;;;;;15.02;9.48;;;17.50;64.80;;;;;;5037346;28;20029;-29
2021/11/18 04:00:32;;;;;;;11.77;8.55;;;17.50;64.80;;;;;;5038159;28;20021;-23
2021/11/18 04:02:58;;;;;;;12.32;9.25;;;17.40;64.70;;;;;;5030398;28;20033;-21
2021/11/18 04:05:24;;;;;;;12.73;9.10;;;17.40;64.80;;;;;;5057910;28;20562;-19
2021/11/18 04:07:50;;;;;;;14.07;8.98;;;17.40;64.70;;;;;;5048134;28;20144;-20
2021/11/18 04:10:18;;;;;;;11.80;8.52;;;17.50;64.70;;;;;;5037665;28;20029;-27
2021/11/18 04:12:44;;;;;;;12.63;8.77;;;17.40;64.70;;;;;;5036633;28;20483;-25
2021/11/18 04:15:10;;;;;;;13.27;9.13;;;17.40;64.70;;;;;;5037843;28;20187;-24
2021/11/18 04:17:36;;;;;;;11.45;8.88;;;17.40;64.70;;;;;;5026803;28;20101;-22
2021/11/18 04:20:02;;;;;;;11.20;8.88;;;17.40;64.70;;;;;;5057228;28;20033;-25
2021/11/18 04:22:27;;;;;;;11.13;8.25;;;17.40;64.80;;;;;;5054279;28;20013;-28
2021/11/18 04:24:53;;;;;;;13.25;8.70;;;17.40;64.70;;;;;;5037146;28;20091;-23
2021/11/18 04:27:19;;;;;;;10.93;7.90;;;17.40;64.70;;;;;;5037831;28;20033;-22
2021/11/18 04:29:44;;;;;;;11.52;7.97;;;17.40;64.70;;;;;;5037643;28;20033;-23
2021/11/18 04:32:22;;;;;;;11.80;7.70;;;17.50;64.70;;;;;;5037513;28;20018;-22
2021/11/18 04:34:48;;;;;;;11.30;7.80;;;17.40;64.60;;;;;;5024479;28;20076;-26
2021/11/18 04:37:13;;;;;;;10.00;7.82;;;17.40;64.70;;;;;;5024387;28;20025;-25
2021/11/18 04:39:39;;;;;;;11.57;7.90;;;17.40;64.70;;;;;;5056755;28;20036;-23
2021/11/18 04:42:06;;;;;;;10.18;7.10;;;17.40;64.80;;;;;;5057389;28;20025;-26
2021/11/18 04:44:32;;;;;;;10.30;7.75;;;17.40;64.80;;;;;;5042521;28;20410;-24
2021/11/18 04:46:59;;;;;;;10.75;7.65;;;17.40;64.80;;;;;;5030415;28;20132;-21
2021/11/18 04:49:24;;;;;;;11.73;8.07;;;17.40;64.80;;;;;;5039701;28;20036;-24
2021/11/18 04:51:50;;;;;;;10.02;7.53;;;17.30;64.80;;;;;;5037047;28;20097;-25
2021/11/18 04:54:16;;;;;;;10.63;7.55;;;17.30;64.80;;;;;;5037563;28;20030;-27
2021/11/18 04:56:41;;;;;;;10.75;7.95;;;17.30;64.80;;;;;;5056446;28;20554;-23
2021/11/18 04:59:07;;;;;;;12.05;8.20;;;17.30;64.80;;;;;;5055834;28;20128;-26
2021/11/18 05:01:34;;;;;;;8.77;6.90;;;17.30;64.80;;;;;;5037173;28;20021;-24
2021/11/18 05:04:00;;;;;;;9.15;7.28;;;17.30;64.80;;;;;;5035603;28;20052;-21
2021/11/18 05:06:26;;;;;;;10.02;7.43;;;17.30;64.70;;;;;;5023754;28;20021;-24
2021/11/18 05:08:52;;;;;;;8.18;6.65;;;17.30;64.70;;;;;;5036801;28;20104;-29
2021/11/18 05:11:17;;;;;;;8.23;6.95;;;17.30;64.80;;;;;;5053763;28;20020;-26
2021/11/18 05:13:43;;;;;;;9.90;7.47;;;17.30;64.80;;;;;;5056824;28;20025;-23
2021/11/18 05:16:11;;;;;;;7.82;6.45;;;17.30;64.80;;;;;;5056846;28;20021;-28
2021/11/18 05:18:37;;;;;;;6.97;6.28;;;17.30;64.80;;;;;;5046891;28;20465;-23
2021/11/18 05:21:04;;;;;;;8.50;6.70;;;17.30;64.70;;;;;;5036798;28;20052;-24
2021/11/18 05:23:30;;;;;;;7.38;6.18;;;17.30;64.80;;;;;;5033737;28;20029;-20
2021/11/18 05:25:56;;;;;;;7.97;6.28;;;17.30;64.80;;;;;;5016991;28;20052;-27
2021/11/18 05:28:22;;;;;;;7.95;6.20;;;17.30;64.70;;;;;;5029880;28;20503;-23
2021/11/18 05:30:48;;;;;;;7.80;6.03;;;17.30;64.70;;;;;;5022838;28;20025;-29
2021/11/18 05:33:15;;;;;;;7.80;6.57;;;17.30;64.70;;;;;;5026500;28;20022;-21
2021/11/18 05:35:40;;;;;;;7.68;6.25;;;17.30;64.70;;;;;;5036555;28;20021;-20
2021/11/18 05:38:06;;;;;;;8.85;6.40;;;17.30;64.70;;;;;;5056606;28;20114;-23
2021/11/18 05:40:32;;;;;;;7.05;5.93;;;17.30;64.70;;;;;;5056617;28;20021;-23
2021/11/18 05:42:58;;;;;;;6.40;5.68;;;17.30;64.70;;;;;;5056759;28;20109;-23
2021/11/18 05:45:26;;;;;;;6.75;5.35;;;17.30;64.70;;;;;;5050421;28;20077;-20
2021/11/18 05:47:52;;;;;;;6.10;5.47;;;17.30;64.70;;;;;;5036161;28;20091;-26
2021/11/18 05:50:18;;;;;;;7.35;6.13;;;17.30;64.70;;;;;;5040258;28;20025;-22
2021/11/18 05:52:43;;;;;;;6.10;5.50;;;17.20;64.60;;;;;;5056395;28;20031;-25
2021/11/18 05:55:10;;;;;;;6.80;6.10;;;17.20;64.70;;;;;;5056395;28;20038;-22
2021/11/18 05:57:36;;;;;;;6.72;5.93;;;17.20;64.70;;;;;;5056416;28;20022;-25
2021/11/18 06:00:04;;;;;;;6.28;5.00;;;17.20;64.70;;;;;;5031868;28;20030;-20
2021/11/18 06:02:30;;;;;;;6.70;5.72;;;17.30;64.60;;;;;;5036202;28;20112;-26
2021/11/18 06:04:55;;;;;;;6.55;5.85;;;17.20;64.60;;;;;;5040449;28;20052;-21
2021/11/18 06:07:21;;;;;;;6.75;5.18;;;17.30;64.60;;;;;;5055991;28;20035;-23
2021/11/18 06:09:47;;;;;;;6.05;5.45;;;17.40;64.20;;;;;;5047761;28;20037;-22
2021/11/18 06:12:12;;;;;;;7.63;6.00;;;17.40;64.50;;;;;;5036167;28;20450;-23
2021/11/18 06:14:38;;;;;;;7.00;6.30;;;17.40;64.90;;;;;;5036130;28;20022;-20
2021/11/18 06:17:04;;;;;;;7.78;6.45;;;17.50;64.50;;;;;;5048535;28;20078;-29
2021/11/18 06:19:29;;;;;;;8.60;6.38;;;17.50;64.40;;;;;;5056285;28;20128;-25
2021/11/18 06:21:56;;;;;;;8.40;6.68;;;17.60;64.20;;;;;;5056277;28;20025;-22
2021/11/18 06:24:23;;;;;;;6.40;5.80;;;17.50;64.80;;;;;;4680740;28;10000238;-28
2021/11/18 06:26:50;;;;;;;7.28;5.75;;;17.50;64.50;;;;;;5017384;28;20030;-23
2021/11/18 06:29:20;;;;;;;6.78;6.07;;;17.60;64.60;;;;;;5023730;28;20499;-26
2021/11/18 06:31:53;;;;;;;6.47;5.88;;;17.60;64.40;;;;;;5031037;28;20060;-25
2021/11/18 06:34:18;;;;;;;7.28;6.57;;;17.60;64.40;;;;;;5030530;28;20041;-22
2021/11/18 06:36:44;;;;;;;8.10;6.75;;;17.60;64.60;;;;;;5031865;28;20030;-23
2021/11/18 06:39:11;;;;;;;7.72;6.13;;;17.60;64.60;;;;;;5031418;28;20087;-26
2021/11/18 06:41:36;;;;;;;9.25;6.50;;;17.60;64.60;;;;;;5029744;28;20033;-21
2021/11/18 06:44:02;;;;;;;7.93;6.63;;;17.60;64.60;;;;;;5030991;28;20021;-26
2021/11/18 06:46:28;;;;;;;7.00;6.28;;;17.60;64.60;;;;;;5032130;28;20049;-21
2021/11/18 06:48:54;;;;;;;7.90;6.20;;;17.60;64.60;;;;;;5028324;28;20108;-20
2021/11/18 06:51:22;;;;;;;7.53;6.50;;;17.60;65.00;;;;;;5036543;28;20033;-27
2021/11/18 06:53:48;;;;;;;6.85;5.55;;;17.60;64.80;;;;;;5059579;28;20025;-20
2021/11/18 06:56:14;;;;;;;8.15;6.32;;;17.60;64.80;;;;;;5059398;28;20052;-27
2021/11/18 06:58:40;;;;;;;7.80;5.57;;;17.60;64.70;;;;;;5059446;28;20032;-26
2021/11/18 07:01:05;;;;;;;6.20;5.47;;;17.60;64.70;;;;;;5040234;28;20486;-27
2021/11/18 07:03:31;;;;;;;7.40;6.68;;;17.60;64.80;;;;;;5039225;28;20426;-22
2021/11/18 07:05:57;;;;;;;7.53;6.00;;;17.60;64.80;;;;;;5054466;28;20033;-22
2021/11/18 07:08:22;;;;;;;6.38;5.55;;;17.60;64.70;;;;;;5038664;28;20067;-26
2021/11/18 07:10:48;;;;;;;7.22;6.20;;;17.60;64.60;;;;;;5019521;28;20476;-19
2021/11/18 07:13:21;;;;;;;7.50;5.88;;;17.60;64.50;;;;;;5020039;28;20049;-25
2021/11/18 07:15:47;;;;;;;7.47;5.87;;;17.60;64.70;;;;;;5012285;28;20091;-22
2021/11/18 07:18:13;;;;;;;6.18;5.45;;;17.60;65.50;;;;;;5012286;28;20300;-23
2021/11/18 07:20:39;;;;;;;5.85;5.25;;;17.60;64.60;;;;;;5009961;28;20133;-25
2021/11/18 07:23:05;;;;;;;6.35;5.50;;;17.60;64.60;;;;;;5021404;28;20152;-29
2021/11/18 07:25:31;;;;;;;6.80;5.28;;;17.60;64.50;;;;;;5023442;28;20049;-26
2021/11/18 07:27:59;;;;;;;5.88;5.20;;;17.60;64.20;;;;;;5023044;28;20057;-20
2021/11/18 07:30:25;;;;;;;5.75;5.15;;;17.70;64.20;;;;;;5022001;28;20560;-30
2021/11/18 07:32:51;;;;;;;7.20;5.07;;;17.70;64.20;;;;;;5022502;28;20073;-24
2021/11/18 07:35:16;;;;;;;5.45;4.95;;;17.60;64.30;;;;;;5023060;28;20064;-28
2021/11/18 07:37:42;;;;;;;4.95;4.45;;;17.70;64.30;;;;;;5023204;28;20053;-30
2021/11/18 07:40:10;;;;;;;5.43;4.47;;;17.70;64.10;;;;;;5020990;28;20045;-29
2021/11/18 07:42:35;;;;;;;5.30;4.75;;;17.70;64.30;;;;;;5023167;28;20224;-26
2021/11/18 07:45:01;;;;;;;6.93;5.03;;;17.70;64.20;;;;;;5025948;28;20128;-21
2021/11/18 07:47:27;;;;;;;4.72;4.25;;;17.70;64.20;;;;;;5036873;28;20048;-19
2021/11/18 07:49:53;;;;;;;5.40;4.90;;;17.70;64.20;;;;;;5044254;28;20037;-26
2021/11/18 07:52:19;;;;;;;5.40;4.90;;;17.70;64.20;;;;;;5056392;28;20041;-24
2021/11/18 07:54:44;;;;;;;6.63;5.20;;;17.70;64.10;;;;;;5038014;28;20101;-23
2021/11/18 07:57:10;;;;;;;5.30;4.80;;;17.70;64.30;;;;;;5036132;28;20052;-28
2021/11/18 07:59:35;;;;;;;5.85;5.30;;;17.70;64.30;;;;;;5036540;28;20050;-25
2021/11/18 08:02:01;;;;;;;5.05;4.63;;;17.70;64.20;;;;;;5011750;28;20080;-24
2021/11/18 08:04:27;;;;;;;5.32;4.57;;;17.80;64.20;;;;;;5016957;28;20046;-27
2021/11/18 08:06:52;;;;;;;5.65;4.80;;;17.80;64.20;;;;;;5016108;28;20048;-28
2021/11/18 08:09:19;;;;;;;5.53;4.43;;;17.80;64.30;;;;;;5016633;28;20487;-29
2021/11/18 08:11:53;;;;;;;4.93;4.50;;;17.80;64.40;;;;;;5024270;28;20041;-29
2021/11/18 08:14:19;;;;;;;4.82;4.43;;;17.80;64.30;;;;;;5036400;28;20037;-33
2021/11/18 08:16:45;;;;;;;5.28;4.72;;;17.80;64.20;;;;;;5029545;28;20052;-24
2021/11/18 08:19:10;;;;;;;4.93;4.53;;;17.80;64.30;;;;;;5034584;28;20033;-27
2021/11/18 08:21:36;;;;;;;4.85;4.45;;;17.80;64.40;;;;;;5035729;28;20490;-22
2021/11/18 08:24:03;;;;;;;5.07;4.57;;;17.80;64.30;;;;;;5035940;28;20034;-27
2021/11/18 08:26:29;;;;;;;4.55;4.25;;;17.80;64.30;;;;;;5036225;28;20519;-22
2021/11/18 08:28:55;;;;;;;5.35;4.57;;;17.90;64.30;;;;;;5051315;28;20067;-23
2021/11/18 08:31:20;;;;;;;4.70;4.32;;;17.80;64.30;;;;;;5036381;28;20104;-26
2021/11/18 08:33:46;;;;;;;4.55;4.15;;;17.80;64.30;;;;;;5036256;28;20068;-25
2021/11/18 08:36:12;;;;;;;4.40;4.00;;;17.80;64.30;;;;;;5035374;28;20068;-23
2021/11/18 08:38:37;;;;;;;5.28;4.70;;;17.90;64.20;;;;;;5036192;28;20033;-26
2021/11/18 08:41:05;;;;;;;4.97;4.57;;;17.90;64.20;;;;;;5053328;28;20045;-29
2021/11/18 08:43:33;;;;;;;4.63;4.22;;;17.90;64.10;;;;;;5056008;28;20079;-26
2021/11/18 08:46:00;;;;;;;4.38;4.05;;;17.90;63.80;;;;;;5047828;28;20141;-27
2021/11/18 08:48:25;;;;;;;4.35;4.05;;;18.00;63.90;;;;;;5034587;28;20045;-27
2021/11/18 08:50:51;;;;;;;3.90;3.60;;;18.00;63.70;;;;;;5034511;28;20494;-31
2021/11/18 08:53:18;;;;;;;4.05;3.72;;;18.00;63.80;;;;;;5033892;28;20103;-26
2021/11/18 08:55:43;;;;;;;3.80;3.50;;;18.00;63.70;;;;;;5035739;28;20057;-31
2021/11/18 08:58:15;;;;;;;3.20;3.00;;;18.00;64.50;;;;;;5035274;28;20048;-27
2021/11/18 09:01:03;;;;;;;3.47;3.20;;;18.00;63.60;;;;;;5035763;28;20144;-27
2021/11/18 09:03:33;;;;;;;3.85;3.55;;;18.00;63.70;;;;;;5031530;28;20072;-23
2021/11/18 09:05:59;;;;;;;4.13;3.30;;;18.00;63.60;;;;;;5033377;28;20041;-25
2021/11/18 09:08:25;;;;;;;4.40;3.33;;;18.00;63.50;;;;;;5034965;28;20041;-25
2021/11/18 09:10:51;;;;;;;3.88;3.45;;;18.00;63.70;;;;;;5032564;28;20050;-26
2021/11/18 09:13:17;;;;;;;3.22;3.03;;;18.00;63.60;;;;;;5033642;28;20047;-25
2021/11/18 09:15:43;;;;;;;3.67;3.40;;;18.00;63.60;;;;;;5034067;28;20041;-27
2021/11/18 09:18:09;;;;;;;3.60;3.30;;;18.00;63.50;;;;;;5033043;28;20120;-23
2021/11/18 09:20:36;;;;;;;3.10;2.80;;;18.10;63.60;;;;;;5034082;28;20616;-24
2021/11/18 09:23:01;;;;;;;3.53;3.22;;;18.10;63.70;;;;;;5034590;28;20045;-27
2021/11/18 09:25:33;;;;;;;3.70;3.38;;;18.10;63.50;;;;;;5035554;28;20095;-26
2021/11/18 09:27:59;;;;;;;3.30;3.10;;;18.10;63.50;;;;;;5034339;28;20502;-27
2021/11/18 09:30:34;;;;;;;3.28;3.08;;;18.10;63.50;;;;;;5034137;28;20203;-25
2021/11/18 09:32:59;;;;;;;3.50;3.30;;;18.10;63.60;;;;;;5031142;28;20063;-26
2021/11/18 09:35:28;;;;;;;3.67;3.38;;;18.10;63.50;;;;;;5035174;28;20029;-24
2021/11/18 09:37:53;;;;;;;3.20;3.00;;;18.10;63.40;;;;;;5034448;28;20112;-24
2021/11/18 09:40:21;;;;;;;3.42;3.13;;;18.10;63.40;;;;;;5043397;28;20072;-27
2021/11/18 09:43:10;;;;;;;3.05;2.85;;;18.10;63.40;;;;;;5070459;28;20041;-24
2021/11/18 09:45:45;;;;;;;3.33;3.03;;;18.10;63.40;;;;;;5070061;28;20098;-29
2021/11/18 09:48:34;;;;;;;2.97;2.78;;;18.10;63.60;;;;;;5065135;28;20057;-31
2021/11/18 09:51:26;;;;;;;3.50;3.20;;;18.10;63.60;;;;;;5050274;28;20099;-25
2021/11/18 09:54:17;;;;;;;3.22;3.03;;;18.00;63.50;;;;;;5049370;28;20144;-23
2021/11/18 09:57:15;;;;;;;3.22;3.03;;;18.00;63.80;;;;;;5049726;28;20045;-25
2021/11/18 10:00:07;;;;;;;3.72;3.42;;;18.00;63.60;;;;;;5034112;28;20044;-22
2021/11/18 10:02:56;;;;;;;2.47;2.33;;;18.00;63.50;;;;;;5025630;28;20038;-25
2021/11/18 10:05:47;;;;;;;2.80;2.60;;;18.00;63.60;;;;;;5047227;28;20065;-28
2021/11/18 10:08:15;;;;;;;3.15;2.95;;;18.00;63.70;;;;;;5014433;28;20049;-22
2021/11/18 10:10:57;;;;;;;2.53;2.42;;;18.00;63.60;;;;;;5049211;28;20041;-29
2021/11/18 10:13:35;;;;;;;2.95;2.75;;;18.00;63.50;;;;;;5048220;28;20045;-23
2021/11/18 10:16:08;;;;;;;3.17;2.83;;;18.00;63.60;;;;;;5023366;28;20056;-26
2021/11/18 10:18:44;;;;;;;3.05;2.85;;;18.00;63.50;;;;;;5049720;28;20073;-30
2021/11/18 10:21:40;;;;;;;3.53;3.28;;;18.10;63.50;;;;;;5014582;28;20073;-27
2021/11/18 10:24:20;;;;;;;3.55;2.60;;;18.10;63.50;;;;;;5037954;28;20489;-24
2021/11/18 10:26:50;;;;;;;2.70;2.50;;;18.00;63.60;;;;;;5034348;28;20049;-26
2021/11/18 10:29:23;;;;;;;2.95;2.75;;;18.00;63.60;;;;;;5038400;28;20045;-24
2021/11/18 10:32:10;;;;;;;3.08;2.78;;;18.00;63.60;;;;;;5037683;28;20045;-24
2021/11/18 10:34:49;;;;;;;3.20;3.00;;;18.00;63.60;;;;;;5038465;28;20033;-23
2021/11/18 10:37:26;;;;;;;3.10;2.90;;;18.10;63.60;;;;;;5037099;28;20038;-25
2021/11/18 10:39:52;;;;;;;3.60;3.15;;;18.00;63.60;;;;;;5037093;28;20049;-27
2021/11/18 10:42:28;;;;;;;2.95;2.70;;;18.10;63.60;;;;;;5037764;28;20134;-22
2021/11/18 10:44:59;;;;;;;2.75;2.55;;;18.00;63.70;;;;;;5052794;28;20069;-24
2021/11/18 10:47:33;;;;;;;3.28;2.97;;;18.10;63.80;;;;;;5039314;28;20049;-26
2021/11/18 10:50:23;;;;;;;3.40;2.80;;;18.20;63.30;;;;;;5022108;28;20053;-28
2021/11/18 10:53:18;;;;;;;3.25;2.95;;;18.20;63.30;;;;;;5022644;28;20045;-21
2021/11/18 10:55:50;;;;;;;3.15;2.90;;;18.10;63.50;;;;;;5023736;28;20077;-26
2021/11/18 10:58:24;;;;;;;4.82;2.90;;;18.10;63.50;;;;;;5023808;28;20524;-22
2021/11/18 11:00:57;;;;;;;2.42;2.22;;;18.10;63.60;;;;;;5022070;28;20049;-21
2021/11/18 11:03:36;;;;;;;3.35;2.75;;;18.10;63.60;;;;;;5023932;28;20045;-22
2021/11/18 11:06:19;;;;;;;2.85;2.40;;;18.10;63.70;;;;;;5023629;28;20782;-24
2021/11/18 11:08:51;;;;;;;3.17;2.97;;;18.10;63.70;;;;;;5022930;28;20064;-23
2021/11/18 11:11:26;;;;;;;3.10;2.70;;;18.10;63.50;;;;;;5022608;28;20057;-24
2021/11/18 11:14:26;;;;;;;3.08;2.85;;;18.10;63.50;;;;;;5037414;28;20762;-29
2021/11/18 11:17:29;;;;;;;3.78;2.90;;;18.10;63.30;;;;;;5037328;28;20046;-25
2021/11/18 11:19:58;;;;;;;4.28;2.53;;;18.20;63.20;;;;;;5022871;28;20049;-24
2021/11/18 11:22:48;;;;;;;3.08;2.67;;;18.20;63.10;;;;;;5022410;28;20140;-27
2021/11/18 11:25:20;;;;;;;3.28;2.90;;;18.20;63.20;;;;;;5021527;28;20041;-22
2021/11/18 11:28:04;;;;;;;2.60;2.40;;;18.20;63.20;;;;;;4701508;28;10001496;-24
2021/11/18 11:31:01;;;;;;;3.60;2.22;;;18.20;63.20;;;;;;5021172;28;20058;-23
2021/11/18 11:33:38;;;;;;;2.80;2.60;;;18.20;63.10;;;;;;5020856;28;20075;-28
2021/11/18 11:36:12;;;;;;;2.30;2.10;;;18.20;63.20;;;;;;5021042;28;20480;-24
2021/11/18 11:38:57;;;;;;;;;;;18.20;63.00;;;;;;5035493;28;20053;-24
2021/11/18 11:42:00;;;;;;;4.72;2.25;;;18.30;63.00;;;;;;5020438;28;19921;-22
2021/11/18 11:44:38;;;;;;;3.67;2.08;;;18.20;63.10;;;;;;5033389;28;20563;-24
2021/11/18 11:47:13;;;;;;;2.28;2.08;;;18.40;62.80;;;;;;5020378;28;20060;-24
2021/11/18 11:49:41;;;;;;;3.40;2.25;;;18.40;62.80;;;;;;5051836;28;20090;-21
2021/11/18 11:52:19;;;;;;;2.92;2.60;;;18.40;62.90;;;;;;5018970;28;20057;-20
2021/11/18 11:54:57;;;;;;;2.80;2.58;;;18.40;62.60;;;;;;5035510;28;20048;-25
2021/11/18 11:57:28;;;;;;;2.92;2.72;;;18.40;62.60;;;;;;5035745;28;20120;-27
2021/11/18 12:00:12;;;;;;;3.90;2.65;;;18.40;62.60;;;;;;5024777;28;20041;-25
2021/11/18 12:03:15;;;;;;;2.97;2.78;;;18.40;62.80;;;;;;5025683;28;20132;-24
2021/11/18 12:05:44;;;;;;;5.82;3.05;;;18.40;62.60;;;;;;5015256;28;20081;-21
2021/11/18 12:08:29;;;;;;;3.40;3.17;;;18.40;62.60;;;;;;5032481;28;20052;-26
2021/11/18 12:11:08;;;;;;;4.70;3.33;;;18.40;62.60;;;;;;5018995;28;20059;-26
2021/11/18 12:13:42;;;;;;;4.60;3.33;;;18.40;62.60;;;;;;5042041;28;20116;-24
2021/11/18 12:16:13;;;;;;;4.88;4.00;;;18.40;62.60;;;;;;5029496;28;20056;-27
2021/11/18 12:18:43;;;;;;;4.80;3.90;;;18.40;62.60;;;;;;5032939;28;20103;-21
2021/11/18 12:21:09;;;;;;;4.05;3.72;;;18.50;62.80;;;;;;5050956;28;20073;-26
2021/11/18 12:23:56;;;;;;;3.90;3.28;;;18.40;62.60;;;;;;5027598;28;20041;-25
2021/11/18 12:26:22;;;;;;;6.70;3.50;;;18.50;62.60;;;;;;5038972;28;20050;-25
2021/11/18 12:29:21;;;;;;;3.90;3.22;;;18.50;62.70;;;;;;5030993;28;20055;-24
2021/11/18 12:32:25;;;;;;;4.10;3.70;;;18.50;62.80;;;;;;5037726;28;20055;-30
2021/11/18 12:34:53;;;;;;;3.70;3.17;;;18.50;62.90;;;;;;5005528;28;20048;-24
2021/11/18 12:37:24;;;;;;;3.53;3.13;;;18.40;62.70;;;;;;5012829;28;20030;-24
2021/11/18 12:40:22;;;;;;;5.97;3.35;;;18.40;62.70;;;;;;5036244;28;20070;-27
2021/11/18 12:43:00;;;;;;;3.47;3.17;;;18.40;62.70;;;;;;5039241;28;20053;-26
2021/11/18 12:45:54;;;;;;;4.78;3.60;;;18.50;62.70;;;;;;5018028;28;20075;-25
2021/11/18 12:48:20;;;;;;;3.08;2.78;;;18.40;62.60;;;;;;5024518;28;20582;-27
2021/11/18 12:50:45;;;;;;;3.17;2.88;;;18.40;62.70;;;;;;5034072;28;20136;-23
2021/11/18 12:53:11;;;;;;;5.15;3.42;;;18.40;62.70;;;;;;5023066;28;20053;-28